createdAt,value
2023-05-11T00:01:41.654Z,100309.16
2023-05-11T00:04:10.422Z,100311.88
2023-05-11T00:06:38.533Z,100312.00
2023-05-11T00:09:06.747Z,100310.28
2023-05-11T00:11:34.802Z,100311.28
2023-05-11T00:14:02.919Z,100306.88
2023-05-11T00:16:31.070Z,100306.88
2023-05-11T00:19:00.756Z,100311.59
2023-05-11T00:21:29.016Z,100308.03
2023-05-11T00:23:57.468Z,100304.47
2023-05-11T00:26:26.798Z,100310.06
2023-05-11T00:28:54.989Z,100308.38
2023-05-11T00:31:23.138Z,100303.78
2023-05-11T00:33:51.252Z,100303.13
2023-05-11T00:36:20.649Z,100305.81
2023-05-11T00:38:50.070Z,100304.13
2023-05-11T00:41:18.188Z,100301.53
2023-05-11T00:43:48.693Z,100300.69
2023-05-11T00:46:17.441Z,100299.00
2023-05-11T00:48:45.757Z,100300.00
2023-05-11T00:51:14.424Z,100303.72
2023-05-11T00:53:43.878Z,100299.31
2023-05-11T00:56:12.065Z,100294.91
2023-05-11T00:58:40.332Z,100296.78
2023-05-11T01:01:09.165Z,100295.06
2023-05-11T01:03:37.692Z,100290.66
2023-05-11T01:06:11.648Z,100291.66
2023-05-11T01:08:46.741Z,100296.22
2023-05-11T01:11:22.591Z,100297.22
2023-05-11T01:13:56.712Z,100293.66
2023-05-11T01:16:25.442Z,100296.38
2023-05-11T01:18:57.363Z,100294.69
2023-05-11T01:21:26.772Z,100293.00
2023-05-11T01:24:29.942Z,100297.56
2023-05-11T01:27:32.775Z,100293.16
2023-05-11T01:30:25.850Z,100296.03
2023-05-11T01:32:56.665Z,100295.19
2023-05-11T01:35:26.945Z,100298.03
2023-05-11T01:37:59.573Z,100295.31
2023-05-11T01:40:33.485Z,100295.47
2023-05-11T01:43:04.980Z,100289.19
2023-05-11T01:45:38.208Z,100291.06
2023-05-11T01:48:10.616Z,100292.06
2023-05-11T01:50:42.740Z,100292.06
2023-05-11T01:53:13.367Z,100290.38
2023-05-11T01:55:42.979Z,100290.38
2023-05-11T01:58:14.361Z,100287.81
2023-05-11T02:00:45.565Z,100282.41
2023-05-11T02:03:15.215Z,100286.97
2023-05-11T02:05:45.207Z,100283.56
2023-05-11T02:08:15.552Z,100282.72
2023-05-11T02:10:44.711Z,100282.72
2023-05-11T02:13:13.649Z,100279.13
2023-05-11T02:15:44.137Z,100276.41
2023-05-11T02:18:15.661Z,100280.31
2023-05-11T02:20:46.300Z,100278.44
2023-05-11T02:23:15.144Z,100274.88
2023-05-11T02:25:44.257Z,100275.06
2023-05-11T02:28:12.349Z,100276.75
2023-05-11T02:30:45.984Z,100273.34
2023-05-11T02:33:29.203Z,100271.66
2023-05-11T02:35:57.695Z,100270.81
2023-05-11T02:38:31.194Z,100268.25
2023-05-11T02:41:03.427Z,100267.53
2023-05-11T02:43:36.607Z,100265.69
2023-05-11T02:46:09.412Z,100270.25
2023-05-11T02:48:41.724Z,100273.97
2023-05-11T02:51:12.157Z,100265.00
2023-05-11T02:53:42.525Z,100256.00
2023-05-11T02:56:10.711Z,100264.13
2023-05-11T02:58:39.262Z,100259.72
2023-05-11T03:01:09.328Z,100259.72
2023-05-11T03:03:37.751Z,100258.03
2023-05-11T03:06:06.245Z,100256.34
2023-05-11T03:08:34.614Z,100259.03
2023-05-11T03:11:04.199Z,100257.34
2023-05-11T03:13:33.416Z,100257.50
2023-05-11T03:16:04.888Z,100264.63
2023-05-11T03:18:35.496Z,100263.78
2023-05-11T03:21:03.977Z,100264.78
2023-05-11T03:23:32.653Z,100263.91
2023-05-11T03:26:01.993Z,100271.19
2023-05-11T03:28:31.617Z,100272.19
2023-05-11T03:30:59.868Z,100265.94
2023-05-11T03:33:28.113Z,100273.22
2023-05-11T03:35:59.252Z,100271.34
2023-05-11T03:38:29.802Z,100276.94
2023-05-11T03:40:59.633Z,100276.06
2023-05-11T03:43:29.683Z,100276.06
2023-05-11T03:45:58.944Z,100276.06
2023-05-11T03:48:27.420Z,100278.94
2023-05-11T03:50:57.308Z,100278.94
2023-05-11T03:53:25.700Z,100282.66
2023-05-11T03:55:54.807Z,100291.81
2023-05-11T03:58:23.823Z,100284.53
2023-05-11T04:00:52.127Z,100282.66
2023-05-11T04:03:23.033Z,100286.41
2023-05-11T04:05:51.208Z,100291.81
2023-05-11T04:08:20.719Z,100290.13
2023-05-11T04:10:48.696Z,100295.53
2023-05-11T04:13:16.772Z,100291.09
2023-05-11T04:15:44.756Z,100293.78
2023-05-11T04:18:12.974Z,100297.53
2023-05-11T04:20:40.998Z,100304.78
2023-05-11T04:23:10.462Z,100300.22
2023-05-11T04:25:40.077Z,100296.84
2023-05-11T04:28:08.180Z,100311.22
2023-05-11T04:30:36.479Z,100310.38
2023-05-11T04:33:05.222Z,100310.38
2023-05-11T04:35:33.397Z,100315.78
2023-05-11T04:38:01.478Z,100320.38
2023-05-11T04:40:29.592Z,100317.81
2023-05-11T04:42:59.048Z,100310.53
2023-05-11T04:45:27.171Z,100316.13
2023-05-11T04:47:55.700Z,100306.13
2023-05-11T04:50:23.770Z,100316.13
2023-05-11T04:52:51.796Z,100317.97
2023-05-11T04:55:20.035Z,100314.41
2023-05-11T04:57:48.510Z,100309.00
2023-05-11T05:00:19.173Z,100319.84
2023-05-11T05:02:47.645Z,100319.84
2023-05-11T05:05:15.830Z,100323.56
2023-05-11T05:07:43.976Z,100320.84
2023-05-11T05:10:12.990Z,100328.97
2023-05-11T05:12:41.626Z,100316.44
2023-05-11T05:15:11.440Z,100313.00
2023-05-11T05:17:40.979Z,100318.41
2023-05-11T05:20:09.821Z,100324.69
2023-05-11T05:22:37.881Z,100327.56
2023-05-11T05:25:06.881Z,100320.28
2023-05-11T05:27:35.356Z,100320.13
2023-05-11T05:30:03.518Z,100322.13
2023-05-11T05:32:31.752Z,100323.00
2023-05-11T05:35:01.282Z,100327.56
2023-05-11T05:37:29.501Z,100329.25
2023-05-11T05:39:57.586Z,100323.13
2023-05-11T05:42:25.732Z,100322.13
2023-05-11T05:44:53.759Z,100327.56
2023-05-11T05:47:21.929Z,100332.97
2023-05-11T05:49:50.016Z,100338.41
2023-05-11T05:52:19.516Z,100337.38
2023-05-11T05:54:47.649Z,100335.69
2023-05-11T05:57:15.960Z,100339.25
2023-05-11T05:59:44.247Z,100339.25
2023-05-11T06:02:13.561Z,100341.09
2023-05-11T06:04:42.108Z,100345.50
2023-05-11T06:07:10.366Z,100344.50
2023-05-11T06:09:42.657Z,100341.94
2023-05-11T06:12:11.116Z,100337.22
2023-05-11T06:14:39.233Z,100341.78
2023-05-11T06:17:07.281Z,100339.09
2023-05-11T06:19:35.404Z,100340.81
2023-05-11T06:22:06.360Z,100339.81
2023-05-11T06:24:34.910Z,100348.78
2023-05-11T06:27:04.548Z,100346.94
2023-05-11T06:29:32.649Z,100342.53
2023-05-11T06:32:00.867Z,100344.22
2023-05-11T06:34:29.267Z,100339.66
2023-05-11T06:37:00.217Z,100345.91
2023-05-11T06:39:28.362Z,100337.78
2023-05-11T06:41:58.708Z,100341.19
2023-05-11T06:44:30.061Z,100335.78
2023-05-11T06:46:58.214Z,100335.78
2023-05-11T06:49:26.382Z,100335.78
2023-05-11T06:51:54.524Z,100337.47
2023-05-11T06:54:22.574Z,100341.03
2023-05-11T06:56:50.701Z,100333.75
2023-05-11T06:59:19.242Z,100340.03
2023-05-11T07:01:48.746Z,100335.44
2023-05-11T07:04:16.824Z,100335.44
2023-05-11T07:06:45.064Z,100330.03
2023-05-11T07:09:13.342Z,100329.91
2023-05-11T07:11:41.689Z,100329.03
2023-05-11T07:14:09.707Z,100330.75
2023-05-11T07:16:38.619Z,100334.31
2023-05-11T07:19:09.923Z,100324.31
2023-05-11T07:21:38.215Z,100326.03
2023-05-11T07:24:07.025Z,100321.47
2023-05-11T07:26:35.088Z,100318.91
2023-05-11T07:29:03.221Z,100316.88
2023-05-11T07:31:32.067Z,100316.88
2023-05-11T07:34:00.205Z,100314.00
2023-05-11T07:36:30.032Z,100325.72
2023-05-11T07:38:59.539Z,100320.28
2023-05-11T07:41:27.887Z,100316.56
2023-05-11T07:43:56.382Z,100312.84
2023-05-11T07:46:24.516Z,100317.25
2023-05-11T07:49:03.453Z,100309.13
2023-05-11T07:51:42.144Z,100316.28
2023-05-11T07:54:10.235Z,100316.28
2023-05-11T07:56:38.301Z,100317.97
2023-05-11T07:59:06.490Z,100317.97
2023-05-11T08:01:34.562Z,100319.69
2023-05-11T08:04:02.819Z,100315.09
2023-05-11T08:06:31.193Z,100323.06
2023-05-11T08:09:00.841Z,100313.09
2023-05-11T08:11:28.982Z,100314.78
2023-05-11T08:13:57.116Z,100313.78
2023-05-11T08:16:25.251Z,100311.91
2023-05-11T08:18:53.483Z,100301.91
2023-05-11T08:21:21.596Z,100302.78
2023-05-11T08:23:49.686Z,100293.63
2023-05-11T08:26:19.097Z,100308.91
2023-05-11T08:28:52.093Z,100296.22
2023-05-11T08:31:19.957Z,100290.47
2023-05-11T08:33:48.359Z,100297.75
2023-05-11T08:36:16.469Z,100295.72
2023-05-11T08:38:44.818Z,100288.44
2023-05-11T08:41:13.499Z,100291.00
2023-05-11T08:43:44.436Z,100285.56
2023-05-11T08:46:15.409Z,100292.69
2023-05-11T08:48:44.203Z,100278.16
2023-05-11T08:51:12.308Z,100277.16
2023-05-11T08:53:40.540Z,100276.13
2023-05-11T08:56:10.709Z,100284.09
2023-05-11T08:58:40.009Z,100269.53
2023-05-11T09:01:12.380Z,100272.94
2023-05-11T09:03:41.285Z,100269.22
2023-05-11T09:06:11.036Z,100273.63
2023-05-11T09:08:40.815Z,100265.34
2023-05-11T09:11:09.448Z,100267.06
2023-05-11T09:13:38.115Z,100266.03
2023-05-11T09:16:13.857Z,100261.31
2023-05-11T09:18:54.736Z,100261.13
2023-05-11T09:21:25.937Z,100248.25
2023-05-11T09:23:59.109Z,100256.25
2023-05-11T09:26:29.231Z,100251.69
2023-05-11T09:31:40.528Z,100242.38
2023-05-11T09:34:15.235Z,100244.06
2023-05-11T09:36:43.993Z,100240.19
2023-05-11T09:39:16.197Z,100239.16
2023-05-11T09:41:45.442Z,100239.03
2023-05-11T09:44:15.433Z,100242.44
2023-05-11T09:46:45.265Z,100238.69
2023-05-11T09:49:15.149Z,100225.81
2023-05-11T09:51:43.371Z,100229.38
2023-05-11T09:54:19.463Z,100225.50
2023-05-11T09:56:49.662Z,100232.63
2023-05-11T09:59:19.115Z,100231.47
2023-05-11T10:01:47.268Z,100225.06
2023-05-11T10:04:23.529Z,100219.47
2023-05-11T10:06:54.243Z,100222.00
2023-05-11T10:09:25.711Z,100224.56
2023-05-11T10:11:56.493Z,100218.13
2023-05-11T10:14:28.340Z,100209.84
2023-05-11T10:16:59.072Z,100216.78
2023-05-11T10:19:29.158Z,100219.34
2023-05-11T10:21:58.483Z,100213.75
2023-05-11T10:24:27.045Z,100223.59
2023-05-11T10:26:57.848Z,100210.69
2023-05-11T10:29:26.040Z,100204.97
2023-05-11T10:31:54.836Z,100209.38
2023-05-11T10:34:24.017Z,100213.78
2023-05-11T10:36:54.445Z,100200.72
2023-05-11T10:39:22.775Z,100193.44
2023-05-11T10:42:07.611Z,100202.28
2023-05-11T10:44:53.476Z,100193.97
2023-05-11T10:47:45.445Z,100199.06
2023-05-11T10:50:34.774Z,100188.03
2023-05-11T10:53:17.404Z,100191.44
2023-05-11T10:56:06.218Z,100185.69
2023-05-11T10:58:52.303Z,100179.09
2023-05-11T11:01:32.157Z,100186.03
2023-05-11T11:04:02.909Z,100184.16
2023-05-11T11:06:33.449Z,100178.59
2023-05-11T11:09:05.341Z,100167.56
2023-05-11T11:11:39.206Z,100176.22
2023-05-11T11:14:09.581Z,100176.91
2023-05-11T11:16:39.015Z,100167.59
2023-05-11T11:19:42.422Z,100172.84
2023-05-11T11:22:44.709Z,100173.53
2023-05-11T11:25:14.736Z,100172.34
2023-05-11T11:28:00.159Z,100167.75
2023-05-11T11:30:30.652Z,100160.28
2023-05-11T11:33:40.477Z,100155.56
2023-05-11T11:36:08.752Z,100153.34
2023-05-11T11:39:00.422Z,100157.59
2023-05-11T11:41:33.237Z,100165.56
2023-05-11T11:44:01.440Z,100158.13
2023-05-11T11:46:30.426Z,100149.63
2023-05-11T11:49:08.801Z,100154.88
2023-05-11T11:51:40.243Z,100160.00
2023-05-11T11:54:09.148Z,100158.00
2023-05-11T11:56:45.944Z,100153.22
2023-05-11T11:59:16.052Z,100158.66
2023-05-11T12:01:45.903Z,100153.91
2023-05-11T12:04:42.027Z,100148.47
2023-05-11T12:07:15.942Z,100155.59
2023-05-11T12:09:47.277Z,100152.88
2023-05-11T12:12:19.173Z,100141.84
2023-05-11T12:14:49.895Z,100141.53
2023-05-11T12:17:25.578Z,100142.38
2023-05-11T12:19:53.648Z,100131.50
2023-05-11T12:22:25.629Z,100134.91
2023-05-11T12:25:00.102Z,100131.16
2023-05-11T12:27:29.996Z,100129.78
2023-05-11T12:29:59.515Z,100128.94
2023-05-11T12:32:29.255Z,100126.75
2023-05-11T12:35:02.293Z,100131.81
2023-05-11T12:37:30.708Z,100128.09
2023-05-11T12:39:59.456Z,100128.09
2023-05-11T12:42:29.119Z,100128.09
2023-05-11T12:44:57.492Z,100117.88
2023-05-11T12:47:25.779Z,100106.00
2023-05-11T12:49:54.094Z,100110.44
2023-05-11T12:52:24.990Z,100101.09
2023-05-11T12:54:54.917Z,100100.91
2023-05-11T12:57:27.682Z,100094.44
2023-05-11T13:00:14.709Z,100104.97
2023-05-11T13:02:48.308Z,100096.50
2023-05-11T13:05:19.373Z,100094.44
2023-05-11T13:07:48.669Z,100100.53
2023-05-11T13:10:16.716Z,100097.66
2023-05-11T13:12:51.868Z,100092.72
2023-05-11T13:15:23.031Z,100090.84
2023-05-11T13:17:58.740Z,100076.06
2023-05-11T13:20:29.371Z,100077.41
2023-05-11T13:23:06.612Z,100071.63
2023-05-11T13:25:35.695Z,100083.84
2023-05-11T13:28:04.031Z,100064.63
2023-05-11T13:30:35.183Z,100074.31
2023-05-11T13:33:03.775Z,100063.44
2023-05-11T13:35:31.914Z,100071.25
2023-05-11T13:38:00.067Z,100073.63
2023-05-11T13:40:28.146Z,100061.56
2023-05-11T13:42:56.830Z,100058.69
2023-05-11T13:45:25.134Z,100056.63
2023-05-11T13:47:55.912Z,100062.91
2023-05-11T13:50:24.375Z,100045.75
2023-05-11T13:52:53.016Z,100050.34
2023-05-11T13:55:21.578Z,100053.06
2023-05-11T13:57:49.914Z,100044.06
2023-05-11T14:00:19.607Z,100044.06
2023-05-11T14:02:49.783Z,100051.19
2023-05-11T14:05:19.662Z,100046.78
2023-05-11T14:07:48.964Z,100049.50
2023-05-11T14:10:17.817Z,100044.91
2023-05-11T14:12:46.095Z,100042.38
2023-05-11T14:15:14.387Z,100036.94
2023-05-11T14:17:43.086Z,100030.66
2023-05-11T14:20:12.848Z,100026.19
2023-05-11T14:22:42.672Z,100035.25
2023-05-11T14:25:11.098Z,100041.66
2023-05-11T14:27:39.140Z,100032.66
2023-05-11T14:30:08.738Z,100035.38
2023-05-11T14:32:39.238Z,100034.53
2023-05-11T14:35:07.679Z,100026.38
2023-05-11T14:37:36.299Z,100031.81
2023-05-11T14:40:06.903Z,100029.28
2023-05-11T14:42:35.097Z,100031.13
2023-05-11T14:45:03.284Z,100029.28
2023-05-11T14:47:31.929Z,100028.41
2023-05-11T14:49:59.949Z,100028.41
2023-05-11T14:52:28.253Z,100023.16
2023-05-11T14:54:56.273Z,100025.88
2023-05-11T14:57:25.799Z,100024.19
2023-05-11T15:00:00.072Z,100031.50
2023-05-11T15:02:29.643Z,100029.78
2023-05-11T15:04:57.842Z,100032.53
2023-05-11T15:07:26.751Z,100028.09
2023-05-11T15:09:55.203Z,100024.53
2023-05-11T15:12:23.216Z,100029.09
2023-05-11T15:14:52.753Z,100023.66
2023-05-11T15:17:20.982Z,100035.56
2023-05-11T15:19:49.110Z,100031.16
2023-05-11T15:22:19.229Z,100032.19
2023-05-11T15:24:47.487Z,100029.47
2023-05-11T15:27:15.678Z,100044.09
2023-05-11T15:29:43.721Z,100036.97
2023-05-11T15:32:15.713Z,100035.25
2023-05-11T15:34:58.033Z,100036.28
2023-05-11T15:37:27.757Z,100033.56
2023-05-11T15:39:56.037Z,100036.47
2023-05-11T15:42:24.287Z,100035.63
2023-05-11T15:44:52.459Z,100034.94
2023-05-11T15:47:22.037Z,100033.22
2023-05-11T15:49:50.224Z,100045.13
2023-05-11T15:52:18.417Z,100042.41
2023-05-11T15:54:46.455Z,100043.44
2023-05-11T15:57:14.504Z,100041.75
2023-05-11T15:59:42.628Z,100044.47
2023-05-11T16:02:10.845Z,100044.66
2023-05-11T16:04:40.261Z,100040.25
2023-05-11T16:07:08.351Z,100044.84
2023-05-11T16:09:36.396Z,100044.13
2023-05-11T16:12:04.784Z,100046.84
2023-05-11T16:14:32.804Z,100065.88
2023-05-11T16:17:01.764Z,100048.91
2023-05-11T16:19:33.735Z,100056.22
2023-05-11T16:22:03.147Z,100055.34
2023-05-11T16:24:34.347Z,100048.22
2023-05-11T16:27:03.167Z,100050.09
2023-05-11T16:29:31.395Z,100058.44
2023-05-11T16:31:59.510Z,100055.72
2023-05-11T16:34:28.120Z,100059.47
2023-05-11T16:36:58.730Z,100057.78
2023-05-11T16:39:29.843Z,100062.31
2023-05-11T16:41:58.171Z,100066.91
2023-05-11T16:44:26.285Z,100068.97
2023-05-11T16:46:54.442Z,100079.84
2023-05-11T16:49:22.593Z,100091.72
2023-05-11T16:51:52.448Z,100083.56
2023-05-11T16:54:20.949Z,100077.47
2023-05-11T16:56:50.543Z,100072.22
2023-05-11T16:59:18.718Z,100081.22
2023-05-11T17:01:46.897Z,100083.09
2023-05-11T17:04:15.732Z,100081.53
2023-05-11T17:06:44.034Z,100089.69
2023-05-11T17:09:12.132Z,100088.00
2023-05-11T17:11:40.297Z,100083.59
2023-05-11T17:14:09.870Z,100094.63
2023-05-11T17:16:38.048Z,100094.63
2023-05-11T17:19:06.181Z,100092.09
2023-05-11T17:21:34.368Z,100095.84
2023-05-11T17:24:02.584Z,100098.72
2023-05-11T17:26:39.598Z,100090.75
2023-05-11T17:29:17.153Z,100099.91
2023-05-11T17:31:46.564Z,100114.50
2023-05-11T17:34:15.098Z,100113.66
2023-05-11T17:36:43.287Z,100132.84
2023-05-11T17:39:11.483Z,100129.47
2023-05-11T17:41:39.916Z,100123.19
2023-05-11T17:44:08.322Z,100131.50
2023-05-11T17:46:38.281Z,100126.25
2023-05-11T17:49:06.853Z,100128.09
2023-05-11T17:51:35.134Z,100130.13
2023-05-11T17:54:03.394Z,100131.16
2023-05-11T17:56:34.711Z,100126.75
2023-05-11T17:59:03.369Z,100135.91
2023-05-11T18:01:31.674Z,100144.22
2023-05-11T18:04:01.867Z,100141.69
2023-05-11T18:06:30.656Z,100150.88
2023-05-11T18:08:59.924Z,100153.72
2023-05-11T18:11:28.339Z,100151.19
2023-05-11T18:13:56.458Z,100151.31
2023-05-11T18:16:24.732Z,100159.63
2023-05-11T18:18:52.962Z,100167.78
2023-05-11T18:21:22.540Z,100170.69
2023-05-11T18:23:50.651Z,100184.44
2023-05-11T18:26:20.143Z,100178.16
2023-05-11T18:28:48.608Z,100185.59
2023-05-11T18:31:18.955Z,100181.34
2023-05-11T18:33:47.715Z,100196.78
2023-05-11T18:36:16.686Z,100205.13
2023-05-11T18:38:48.827Z,100203.41
2023-05-11T18:41:20.135Z,100206.31
2023-05-11T18:43:49.493Z,100216.31
2023-05-11T18:46:17.927Z,100212.03
2023-05-11T18:48:46.564Z,100224.09
2023-05-11T18:51:18.972Z,100221.56
2023-05-11T18:53:48.886Z,100231.56
2023-05-11T18:56:17.860Z,100234.44
2023-05-11T18:58:46.833Z,100230.19
2023-05-11T19:01:15.813Z,100242.06
2023-05-11T19:03:44.529Z,100241.38
2023-05-11T19:08:42.158Z,100250.88
2023-05-11T19:11:13.975Z,100257.31
2023-05-11T19:13:43.069Z,100252.88
2023-05-11T19:16:11.737Z,100258.47
2023-05-11T19:18:40.626Z,100258.66
2023-05-11T19:21:09.898Z,100265.25
2023-05-11T19:23:38.172Z,100263.56
2023-05-11T19:26:06.830Z,100267.28
2023-05-11T19:28:36.662Z,100272.00
2023-05-11T19:31:06.913Z,100276.75
2023-05-11T19:33:36.629Z,100268.78
2023-05-11T19:36:05.538Z,100275.22
2023-05-11T19:38:35.374Z,100267.41
2023-05-11T19:41:03.976Z,100275.69
2023-05-11T19:43:32.427Z,100279.44
2023-05-11T19:46:03.852Z,100276.03
2023-05-11T19:48:32.211Z,100275.34
2023-05-11T19:51:01.255Z,100275.50
2023-05-11T19:53:29.842Z,100277.53
2023-05-11T19:55:57.949Z,100281.25
2023-05-11T19:58:26.392Z,100280.56
2023-05-11T20:00:54.871Z,100278.19
2023-05-11T20:03:25.275Z,100278.19
2023-05-11T20:05:56.047Z,100287.34
2023-05-11T20:08:24.219Z,100277.66
2023-05-11T20:10:52.264Z,100282.25
2023-05-11T20:13:20.409Z,100278.81
2023-05-11T20:15:48.896Z,100275.41
2023-05-11T20:18:20.634Z,100278.97
2023-05-11T20:20:50.481Z,100279.16
2023-05-11T20:23:19.166Z,100278.44
2023-05-11T20:25:47.369Z,100278.59
2023-05-11T20:28:15.502Z,100283.16
2023-05-11T20:30:43.613Z,100282.31
2023-05-11T20:35:42.666Z,100273.63
2023-05-11T20:38:12.079Z,100287.34
2023-05-11T20:40:41.342Z,100283.78
2023-05-11T20:43:09.421Z,100277.69
2023-05-11T20:45:37.509Z,100284.97
2023-05-11T20:48:05.823Z,100276.84
2023-05-11T20:50:33.984Z,100275.28
2023-05-11T20:53:02.085Z,100279.00
2023-05-11T20:55:31.515Z,100281.03
2023-05-11T20:57:59.633Z,100285.59
2023-05-11T21:00:27.729Z,100279.31
2023-05-11T21:02:58.939Z,100278.66
2023-05-11T21:05:27.118Z,100286.78
2023-05-11T21:07:55.158Z,100280.66
2023-05-11T21:10:23.365Z,100289.78
2023-05-11T21:12:53.619Z,100286.22
2023-05-11T21:15:22.097Z,100288.09
2023-05-11T21:17:50.252Z,100284.53
2023-05-11T21:20:18.850Z,100282.81
2023-05-11T21:22:47.472Z,100280.28
2023-05-11T21:25:15.823Z,100285.69
2023-05-11T21:27:43.805Z,100282.16
2023-05-11T21:30:13.625Z,100284.16
2023-05-11T21:32:41.926Z,100291.44
2023-05-11T21:35:14.956Z,100293.16
2023-05-11T21:37:45.214Z,100292.47
2023-05-11T21:40:14.305Z,100288.06
2023-05-11T21:42:42.404Z,100290.75
2023-05-11T21:45:12.040Z,100291.75
2023-05-11T21:47:42.111Z,100295.47
2023-05-11T21:50:11.249Z,100300.03
2023-05-11T21:52:39.574Z,100301.06
2023-05-11T21:55:08.462Z,100296.66
2023-05-11T21:57:37.095Z,100291.22
2023-05-11T22:00:08.293Z,100290.38
2023-05-11T22:02:36.496Z,100294.09
2023-05-11T22:05:09.320Z,100294.94
2023-05-11T22:07:37.445Z,100298.66
2023-05-11T22:10:06.184Z,100296.97
2023-05-11T22:12:34.371Z,100303.25
2023-05-11T22:15:02.432Z,100302.38
2023-05-11T22:17:30.954Z,100296.13
2023-05-11T22:19:59.020Z,100294.41
2023-05-11T22:22:28.475Z,100301.69
2023-05-11T22:24:56.634Z,100300.81
2023-05-11T22:27:24.801Z,100303.53
2023-05-11T22:29:55.671Z,100302.84
2023-05-11T22:32:23.721Z,100304.53
2023-05-11T22:34:58.494Z,100299.28
2023-05-11T22:37:28.485Z,100302.00
2023-05-11T22:39:56.458Z,100304.72
2023-05-11T22:42:24.606Z,100303.84
2023-05-11T22:44:52.952Z,100307.56
2023-05-11T22:47:21.471Z,100304.03
2023-05-11T22:49:49.868Z,100312.16
2023-05-11T22:52:17.981Z,100303.16
2023-05-11T22:54:47.694Z,100315.03
2023-05-11T22:57:17.217Z,100307.06
2023-05-11T22:59:46.772Z,100318.91
2023-05-11T23:02:14.938Z,100311.75
2023-05-11T23:04:43.146Z,100315.31
2023-05-11T23:07:12.803Z,100319.03
2023-05-11T23:09:41.007Z,100312.75
2023-05-11T23:12:10.793Z,100314.63
2023-05-11T23:14:38.894Z,100316.47
2023-05-11T23:17:06.996Z,100316.47
2023-05-11T23:19:35.306Z,100315.63
2023-05-11T23:22:03.593Z,100311.22
2023-05-11T23:24:31.864Z,100311.22
2023-05-11T23:27:00.134Z,100306.81
2023-05-11T23:29:29.681Z,100314.09
2023-05-11T23:31:57.713Z,100307.81
2023-05-11T23:34:25.749Z,100310.53
2023-05-11T23:36:53.827Z,100298.00
2023-05-11T23:39:21.826Z,100306.13
2023-05-11T23:41:50.038Z,100305.28
2023-05-11T23:44:18.701Z,100301.72
2023-05-11T23:46:48.125Z,100307.13
2023-05-11T23:49:16.216Z,100292.88
2023-05-11T23:51:44.578Z,100298.28
2023-05-11T23:54:12.675Z,100292.00
2023-05-11T23:56:40.745Z,100296.59
2023-05-11T23:59:08.825Z,100289.47
